CDT,Max TemperatureF,Mean TemperatureF,Min TemperatureF,Max Dew PointF,MeanDew PointF,Min DewpointF,Max Humidity, Mean Humidity, Min Humidity, Max Sea Level PressureIn, Mean Sea Level PressureIn, Min Sea Level PressureIn, Max VisibilityMiles, Mean VisibilityMiles, Min VisibilityMiles, Max Wind SpeedMPH, Mean Wind SpeedMPH, Max Gust SpeedMPH,PrecipitationIn, CloudCover, Events, WindDirDegrees
2010-10-1,82,61,39,49,43,38,92,59,26,30.25,30.14,30.04,10,10,10,25,8,35,0.00,0,,307
2010-10-2,62,49,36,42,36,31,89,61,32,30.46,30.39,30.27,10,10,10,21,7,26,0.00,0,,15
2010-10-3,65,49,33,37,34,31,89,60,31,30.44,30.37,30.28,10,10,10,18,9,25,0.00,0,,152
2010-10-4,69,55,41,38,37,35,79,56,32,30.30,30.25,30.18,10,10,10,24,14,31,0.00,0,,163
2010-10-5,80,65,50,47,43,38,66,48,30,30.22,30.18,30.12,10,10,10,25,14,32,0.00,0,,174
2010-10-6,78,62,45,52,43,28,83,51,19,30.24,30.20,30.15,10,10,10,23,10,29,0.00,0,,319
2010-10-7,79,58,36,45,36,31,92,55,17,30.29,30.18,30.05,10,10,10,13,6,16,0.00,0,,186
2010-10-8,92,73,54,53,46,37,67,44,21,30.04,29.93,29.84,10,10,10,20,9,25,0.00,0,,181
2010-10-9,81,64,47,51,47,43,83,56,28,29.96,29.91,29.87,10,10,10,14,3,17,0.00,0,,257
2010-10-10,77,60,42,49,45,42,92,63,33,29.97,29.91,29.85,10,10,10,16,5,22,0.00,1,,145
2010-10-11,76,64,52,53,50,48,89,68,46,29.94,29.89,29.84,10,10,9,16,5,22,0.01,4,Rain-Thunderstorm,288
2010-10-12,70,57,44,51,46,38,93,65,37,30.30,30.12,29.93,10,10,10,28,13,36,0.00,0,,314
2010-10-13,67,51,35,38,33,26,86,54,22,30.41,30.34,30.30,10,10,10,17,7,24,0.00,0,,299
2010-10-14,74,54,34,37,32,29,82,51,20,30.28,30.14,30.06,10,10,10,23,7,30,0.00,0,,300
2010-10-15,75,53,30,39,35,28,92,58,23,30.18,30.06,29.90,10,10,10,21,9,28,0.00,0,,175
2010-10-16,68,54,40,41,35,28,76,53,29,30.21,30.07,29.89,10,10,10,23,10,29,0.00,0,,328
2010-10-17,64,46,28,32,28,24,82,52,22,30.23,30.15,30.04,10,10,10,15,3,18,0.00,0,,118
2010-10-18,63,48,32,33,30,26,82,56,30,30.16,30.11,30.05,10,10,10,9,3,14,0.00,0,,12
2010-10-19,72,51,29,37,32,27,92,60,27,30.10,30.02,29.89,10,10,10,21,7,28,0.00,0,,259
2010-10-20,76,55,34,34,31,28,82,50,18,30.04,29.97,29.91,10,10,10,21,9,25,0.00,0,,284
2010-10-21,66,49,31,34,29,23,92,57,21,30.14,30.05,29.97,10,10,10,13,5,17,0.00,0,,142
2010-10-22,74,57,40,52,41,28,80,59,38,29.96,29.87,29.78,10,10,9,21,7,25,0.00,0,,130
2010-10-23,75,63,50,59,54,48,100,72,43,29.77,29.68,29.58,10,8,2,18,6,23,0.00,5,,149
2010-10-24,57,52,46,52,49,46,100,89,77,29.65,29.60,29.53,10,8,1,18,7,23,0.00,6,,313
2010-10-25,65,55,45,57,48,43,100,82,63,29.51,29.22,29.04,10,7,0,26,13,33,0.57,5,Fog-Rain,205
2010-10-26,58,51,44,43,35,30,92,64,36,29.47,29.25,29.09,10,10,10,43,21,56,0.12,6,Rain,281
2010-10-27,47,40,33,32,29,25,82,64,45,30.21,29.80,29.47,10,10,7,44,23,56,T,3,Rain-Snow,282
2010-10-28,54,41,27,25,22,15,81,52,22,30.47,30.38,30.20,10,10,10,20,10,24,0.00,0,,308
2010-10-29,68,48,28,33,28,21,75,50,24,30.38,30.07,29.84,10,10,10,25,12,32,0.00,0,,184
2010-10-30,66,50,34,37,34,31,79,55,30,30.09,29.95,29.83,10,10,10,18,7,22,0.00,0,,335
2010-10-31,51,44,36,37,34,31,85,66,46,30.25,30.17,30.09,10,10,9,16,5,21,0.00,1,,96